x

Long Island - 30 Nm South Of Islip, Ny (44025) Wave Buoy

2:50pm - Tue 18th Sep 2018 All times are EDT. -4 hours from GMT.

  • Sig Wave height 5.6ft
  • Swell Direction
  • Peak Period 6s
  • Average Period 5s
  • Wind
    20mph, 22mph gusts
  • Sea Temp 72°f
  • Air Temp 74°f
  • Sea Pressure 1006.1mb
  • Long Island - 30 Nm South Of Islip, Ny
  • Long Island - 30 Nm South Of Islip, Ny

More Historic Weather Station data

Upgrade to MSW Pro to gain access to the past 30 days of data for over 8000 Wavebouys and Weather Stations around the globe.

Join

Comparision Forecast

View Surf forecast
   
Tue 09/18 2:50pm 5.5ft 6s 5s 20 22 mph 1006.1mb 72f 74f
1:50pm 5ft 6s 5s 18 22 mph 1006.8mb 72f 74f
12:50pm 6.5ft 6s 5s 18 22 mph 1007.5mb 72f 74f
11:50am 6ft 6s 5s 22 29 mph 1007.3mb 72f 74f
10:50am 6ft 6s 5s 20 25 mph 1008.3mb 72f 74f
9:50am 5.5ft 6s 5s 22 25 mph 1008.6mb 72f 74f
8:50am 5ft 6s 5s 22 27 mph 1008.9mb 72f 74f
7:50am 5ft 5s 5s 22 27 mph 1009.4mb 72f 75f
6:50am 4.5ft 5s 5s 22 27 mph 1009.4mb 72f 74f
5:50am 4.5ft 5s 5s 22 29 mph 1009.6mb 72f 75f
4:50am 4ft 4s 5s 20 22 mph 1010.1mb 72f 74f
3:50am 3.5ft 8s 5s 18 22 mph 1010.9mb 72f 74f
2:50am 3.5ft 8s 5s 18 20 mph 1011.8mb 72f 74f
1:50am 3.5ft 9s 5s 18 22 mph 1012.4mb 72f 74f
12:50am 3.5ft 8s 5s 18 20 mph 1013.3mb 72f 74f
Mon 09/17 10:50pm 3ft 10s 6s 13 16 mph 1014.3mb 72f 74f
9:50pm 3ft 9s 6s 11 13 mph 1015.2mb 72f 74f
8:50pm 3.5ft 10s 7s 11 11 mph 1015.9mb 72f 74f
7:50pm 3ft 10s 7s 9 11 mph 1015.7mb 72f 73f
5:50pm 3.5ft 10s 7s 9 11 mph 1016.6mb 72f 73f
4:50pm 3ft 11s 6s 9 11 mph 1017.1mb 72f 73f
3:50pm 3.5ft 10s 6s 11 13 mph 1017.6mb 72f 73f
2:50pm 3.5ft 10s 7s 11 13 mph 1018.3mb 72f 73f
1:50pm 3.5ft 10s 7s 11 11 mph 1019.2mb 72f 73f
12:50pm 3ft 8s 6s 11 13 mph 1019.6mb 72f 73f
11:50am 3ft 11s 6s 9 11 mph 1020.2mb 72f 72f
10:50am 3.5ft 10s 7s 11 13 mph 1020.6mb 72f 72f
9:50am 3.5ft 11s 7s 11 13 mph 1020.9mb 72f 72f
8:50am 3.5ft 8s 7s 11 13 mph 1021.1mb 72f 72f
7:50am 3.5ft 11s 7s 9 11 mph 1021.4mb 72f 72f
6:50am 3.5ft 8s 7s 9 11 mph 1021.5mb 72f 71f
4:50am 3.5ft 9s 7s 7 7 mph 1021.8mb 71f 71f
3:50am 3.5ft 8s 7s 4 7 mph 1021.9mb 71f 71f
2:50am 3.5ft 9s 7s 2 4 mph 1022.1mb 71f 71f
1:50am 3.5ft 9s 7s 7 9 mph 1022.3mb 71f 71f
12:50am 4ft 9s 8s 7 7 mph 1022.5mb 71f 71f
Sun 09/16 11:50pm 4ft 10s 8s 9 9 mph 1022.5mb 71f 71f
10:50pm 4ft 11s 8s 9 11 mph 1022.8mb 72f 72f
7:50pm 4ft 10s 8s 7 9 mph 1022.4mb 72f 72f
6:50pm 4ft 12s 8s 9 9 mph 1022.4mb 73f 72f
5:50pm 4ft 12s 8s 7 9 mph 1022.4mb 73f 73f
4:50pm 4ft 11s 8s 7 9 mph 1022.6mb 74f 73f
2:50pm 3.5ft 12s 7s 2 4 mph 1022.9mb 73f 73f
1:50pm 3.5ft 12s 8s 4 7 mph 1023.2mb 73f 72f
12:50pm 3.5ft 13s 7s 2 4 mph 1023.3mb 73f 72f
11:50am 3.5ft 12s 8s 2 4 mph 1023.7mb 72f 71f
10:50am 3.5ft 13s 7s 4 4 mph 1023.7mb 71f 71f
9:50am 3.5ft 13s 8s 4 4 mph 1023.5mb 71f 71f
8:50am 3.5ft 12s 7s 4 7 mph 1023.2mb 70f 71f
7:50am 4ft 13s 7s 2 2 mph 1023.2mb 70f 71f
6:50am 3.5ft 12s 7s 2 2 mph 1022.9mb 70f 70f
5:50am 3.5ft 14s 7s  -  2 mph 1022.5mb 70f 70f
3:50am 3.5ft 12s 7s 2 4 mph 1022.1mb 71f 70f
2:50am 3.5ft 14s 7s 4 7 mph 1022.2mb 71f 70f
1:50am 3.5ft 8s 7s 9 9 mph 1021.9mb 71f 70f
12:50am 3.5ft 14s 7s 4 4 mph 1022.2mb 71f 69f
Sat 09/15 11:50pm 3.5ft 8s 7s 4 4 mph 1022.1mb 71f 70f
10:50pm 3.5ft 8s 6s 2 2 mph 1022.4mb 71f 69f
9:50pm 3.5ft 9s 6s 2 4 mph 1022.3mb 71f 69f
8:50pm 3.5ft 8s 6s 7 7 mph 1022.4mb 71f 69f
7:50pm 3.5ft 10s 6s 9 11 mph 1021.9mb 71f 69f
6:50pm 3.5ft 12s 6s 9 11 mph 1022mb 71f 69f
5:50pm 3.5ft 8s 5s 11 13 mph 1022mb 71f 69f
4:50pm 3.5ft 8s 6s 16 18 mph 1022.1mb 71f 69f
3:50pm 4ft 8s 6s 11 13 mph 1022.3mb 71f 70f
2:50pm 4ft 8s 6s 9 11 mph 1022.3mb 71f 70f
1:50pm 4ft 8s 6s 9 11 mph 1022.3mb 71f 70f
12:50pm 4.5ft 8s 5s 11 16 mph 1022.6mb 71f 70f
11:50am 4.5ft 8s 5s 13 16 mph 1022.8mb 71f 70f
10:50am 4.5ft 8s 5s 13 16 mph 1023mb 71f 70f
9:50am 4.5ft 7s 5s 13 18 mph 1022.9mb 70f 70f
7:50am 5ft 8s 5s 16 20 mph 1022.4mb 70f 70f
6:50am 4.5ft 8s 5s 16 18 mph 1022.3mb 70f 70f
5:50am 4.5ft 10s 6s 16 18 mph 1021.7mb 70f 70f
4:50am 4.5ft 8s 6s 13 16 mph 1021.6mb 70f 70f
3:50am 4.5ft 10s 6s 13 16 mph 1021.4mb 70f 70f
2:50am 5ft 10s 6s 13 16 mph 1021.7mb 70f 70f
1:50am 4.5ft 10s 6s 11 13 mph 1022mb 70f 70f
12:50am 5ft 10s 6s 11 13 mph 1022.4mb 70f 70f
Fri 09/14 11:50pm 5.5ft 11s 6s 11 13 mph 1022.7mb 70f 70f
10:50pm 5.5ft 10s 6s 11 13 mph 1022.8mb 70f 70f
9:50pm 6ft 9s 6s 11 13 mph 1023mb 70f 70f